Time;durP1;ratioP1;P1;durP2;ratioP2;P2;SDS_P1;SDS_P2;PMS_P1;PMS_P2;Temp;Humidity;BMP_temperature;BMP_pressure;BME280_temperature;BME280_humidity;BME280_pressure;Samples;Min_cycle;Max_cycle;Signal;HPM_P1;HPM_P2
2022/12/05 00:01:41;;;;;;;28.67;14.40;;;5.50;99.90;;;;;;5126732;27;20129;-67
2022/12/05 00:04:09;;;;;;;31.00;14.25;;;5.40;99.90;;;;;;5133375;27;20033;-67
2022/12/05 00:06:36;;;;;;;32.85;14.25;;;5.50;99.90;;;;;;5124984;27;20034;-68
2022/12/05 00:09:02;;;;;;;28.65;13.88;;;5.50;99.90;;;;;;5112013;27;20035;-67
2022/12/05 00:11:30;;;;;;;26.98;13.25;;;5.50;99.90;;;;;;5096734;27;20042;-67
2022/12/05 00:13:58;;;;;;;29.98;13.95;;;5.50;99.90;;;;;;5114174;27;20070;-67
2022/12/05 00:16:25;;;;;;;31.30;15.27;;;5.50;99.90;;;;;;5109120;27;20027;-68
2022/12/05 00:18:51;;;;;;;30.27;14.30;;;5.50;99.90;;;;;;5096473;28;20106;-67
2022/12/05 00:21:23;;;;;;;30.33;14.80;;;5.50;99.90;;;;;;5098030;27;20043;-68
2022/12/05 00:23:51;;;;;;;29.15;14.68;;;5.50;99.90;;;;;;5114747;27;20031;-67
2022/12/05 00:26:17;;;;;;;33.60;13.80;;;5.50;99.90;;;;;;5108763;27;20183;-68
2022/12/05 00:28:43;;;;;;;31.10;15.25;;;5.50;99.90;;;;;;5110282;27;20110;-67
2022/12/05 00:31:11;;;;;;;34.78;15.65;;;5.40;99.90;;;;;;5106640;27;20118;-67
2022/12/05 00:33:37;;;;;;;29.35;13.38;;;5.40;99.90;;;;;;5108735;27;20131;-69
2022/12/05 00:36:13;;;;;;;34.65;14.48;;;5.40;99.90;;;;;;5076856;28;20034;-67
2022/12/05 00:38:40;;;;;;;30.95;13.95;;;5.40;99.90;;;;;;5113411;27;20106;-67
2022/12/05 00:41:09;;;;;;;31.30;14.38;;;5.40;99.90;;;;;;5116732;27;20454;-67
2022/12/05 00:43:35;;;;;;;33.50;14.05;;;5.40;99.90;;;;;;5136335;27;20461;-67
2022/12/05 00:46:06;;;;;;;37.03;15.68;;;5.30;99.90;;;;;;5115867;27;20565;-67
2022/12/05 00:48:32;;;;;;;;;;;5.30;99.90;;;;;;5099366;28;20044;-68
2022/12/05 00:51:10;;;;;;;30.13;14.15;;;5.30;99.90;;;;;;5103666;28;19984;-67
2022/12/05 00:53:36;;;;;;;37.15;14.75;;;5.30;99.90;;;;;;5098464;28;20036;-67
2022/12/05 00:56:04;;;;;;;34.92;15.52;;;5.30;99.90;;;;;;5116350;27;20414;-68
2022/12/05 00:58:30;;;;;;;34.72;15.75;;;5.30;99.90;;;;;;5098369;28;20075;-67
2022/12/05 01:00:56;;;;;;;32.95;15.50;;;5.30;99.90;;;;;;5112934;27;20039;-67
2022/12/05 01:03:21;;;;;;;37.25;15.65;;;5.30;99.90;;;;;;5115996;28;20023;-67
2022/12/05 01:05:47;;;;;;;34.42;15.82;;;5.30;99.90;;;;;;5116687;27;20050;-67
2022/12/05 01:08:12;;;;;;;31.88;16.08;;;5.20;99.90;;;;;;5127375;27;20072;-67
2022/12/05 01:10:38;;;;;;;39.78;15.85;;;5.30;99.90;;;;;;5102055;27;20035;-67
2022/12/05 01:13:04;;;;;;;35.45;16.35;;;5.30;99.90;;;;;;5130610;27;20185;-67
2022/12/05 01:15:29;;;;;;;35.33;15.55;;;5.30;99.90;;;;;;5121088;27;20027;-67
2022/12/05 01:17:55;;;;;;;32.75;15.15;;;5.30;99.90;;;;;;5103071;27;20036;-67
2022/12/05 01:20:21;;;;;;;35.45;15.98;;;5.30;99.90;;;;;;5084238;27;20038;-68
2022/12/05 01:22:46;;;;;;;37.45;16.42;;;5.40;99.90;;;;;;5135369;27;20491;-67
2022/12/05 01:25:12;;;;;;;38.13;16.20;;;5.40;99.90;;;;;;5117471;27;20035;-67
2022/12/05 01:27:37;;;;;;;33.75;15.75;;;5.30;99.90;;;;;;5118585;27;20032;-68
2022/12/05 01:30:04;;;;;;;36.17;15.63;;;5.40;99.90;;;;;;5100510;28;20428;-67
2022/12/05 01:32:29;;;;;;;36.05;15.63;;;5.40;99.90;;;;;;5102593;27;20031;-67
2022/12/05 01:34:55;;;;;;;37.92;16.98;;;5.40;99.90;;;;;;5101640;27;20514;-67
2022/12/05 01:37:20;;;;;;;35.85;16.02;;;5.40;99.90;;;;;;5104803;27;20087;-67
2022/12/05 01:39:48;;;;;;;33.78;15.20;;;5.40;99.90;;;;;;5136080;27;20041;-67
2022/12/05 01:42:13;;;;;;;36.67;17.27;;;5.40;99.90;;;;;;5121992;27;20031;-67
2022/12/05 01:44:42;;;;;;;39.15;16.08;;;5.40;99.90;;;;;;5121290;27;20042;-67
2022/12/05 01:47:08;;;;;;;35.50;15.90;;;5.40;99.90;;;;;;5125151;27;20080;-68
2022/12/05 01:49:37;;;;;;;36.85;17.33;;;5.50;99.90;;;;;;5137382;27;20058;-67
2022/12/05 01:52:07;;;;;;;34.85;16.63;;;5.40;99.90;;;;;;5129284;27;20084;-67
2022/12/05 01:54:36;;;;;;;40.13;17.27;;;5.40;99.90;;;;;;5117089;27;20499;-67
2022/12/05 01:57:05;;;;;;;38.35;16.02;;;5.40;99.90;;;;;;5127152;27;20030;-67
2022/12/05 01:59:35;;;;;;;33.47;16.73;;;5.40;99.90;;;;;;5113509;27;20093;-67
2022/12/05 02:02:01;;;;;;;38.05;16.75;;;5.40;99.90;;;;;;5131606;27;20038;-67
2022/12/05 02:04:27;;;;;;;34.75;16.00;;;5.40;99.90;;;;;;5132898;27;20546;-67
2022/12/05 02:06:53;;;;;;;35.83;16.02;;;5.50;99.90;;;;;;5119173;27;20046;-68
2022/12/05 02:09:20;;;;;;;36.30;16.65;;;5.40;99.90;;;;;;5120576;27;20035;-67
2022/12/05 02:11:53;;;;;;;38.33;17.27;;;5.40;99.90;;;;;;5102631;27;20027;-67
2022/12/05 02:14:30;;;;;;;30.70;15.13;;;5.50;99.90;;;;;;5120065;27;20038;-67
2022/12/05 02:17:22;;;;;;;40.47;17.25;;;5.50;99.90;;;;;;5118679;27;20024;-67
2022/12/05 02:20:20;;;;;;;36.67;16.65;;;5.50;99.90;;;;;;5122043;27;20452;-67
2022/12/05 02:23:39;;;;;;;38.90;15.90;;;5.40;99.90;;;;;;5101361;27;20044;-67
2022/12/05 02:26:28;;;;;;;42.33;18.33;;;5.40;99.90;;;;;;5083791;27;20462;-67
2022/12/05 02:29:48;;;;;;;38.38;18.13;;;5.30;99.90;;;;;;5123581;27;20057;-67
2022/12/05 02:32:27;;;;;;;41.53;16.85;;;5.40;99.90;;;;;;5055921;28;20120;-67
2022/12/05 02:35:02;;;;;;;40.42;18.80;;;5.40;99.90;;;;;;5101821;27;20043;-67
2022/12/05 02:37:50;;;;;;;39.13;16.88;;;5.50;99.90;;;;;;5097095;28;20302;-68
2022/12/05 02:40:40;;;;;;;41.92;17.63;;;5.40;99.90;;;;;;5081623;28;20424;-67
2022/12/05 02:43:30;;;;;;;40.50;18.05;;;5.40;99.90;;;;;;5106698;27;20104;-68
2022/12/05 02:46:00;;;;;;;37.35;17.50;;;5.30;99.90;;;;;;5105326;27;20034;-67
2022/12/05 02:48:28;;;;;;;43.65;17.63;;;5.30;99.90;;;;;;5123097;27;20927;-67
2022/12/05 02:50:57;;;;;;;43.90;18.90;;;5.30;99.90;;;;;;5128907;27;20039;-67
2022/12/05 02:53:25;;;;;;;36.35;17.58;;;5.40;99.90;;;;;;5134348;27;20023;-68
2022/12/05 02:55:53;;;;;;;37.50;17.25;;;5.50;99.90;;;;;;5121018;27;20088;-67
2022/12/05 02:58:26;;;;;;;34.92;16.45;;;5.60;99.90;;;;;;5118328;27;20101;-67
2022/12/05 03:00:57;;;;;;;34.75;15.77;;;5.60;99.90;;;;;;5108908;27;20051;-67
2022/12/05 03:03:22;;;;;;;45.58;18.85;;;5.70;99.90;;;;;;5134673;27;20474;-67
2022/12/05 03:06:06;;;;;;;38.88;17.63;;;5.60;99.90;;;;;;5115939;27;20110;-67
2022/12/05 03:08:45;;;;;;;43.13;17.08;;;5.60;99.90;;;;;;5114319;27;20043;-67
2022/12/05 03:11:11;;;;;;;39.05;16.65;;;5.70;99.90;;;;;;5098201;28;20042;-67
2022/12/05 03:13:43;;;;;;;36.88;16.92;;;5.70;99.90;;;;;;5098537;28;20030;-67
2022/12/05 03:16:17;;;;;;;35.88;16.80;;;5.70;99.90;;;;;;5111832;27;20083;-67
2022/12/05 03:18:49;;;;;;;39.65;18.15;;;5.70;99.90;;;;;;5115544;27;20078;-67
2022/12/05 03:21:28;;;;;;;39.47;18.02;;;5.70;99.90;;;;;;5112913;27;20655;-67
2022/12/05 03:24:01;;;;;;;39.13;18.35;;;5.70;99.90;;;;;;5135843;27;20037;-68
2022/12/05 03:26:54;;;;;;;39.33;18.23;;;5.80;99.90;;;;;;5113775;27;20574;-67
2022/12/05 03:29:53;;;;;;;40.70;18.25;;;5.70;99.90;;;;;;5094618;27;20033;-67
2022/12/05 03:32:18;;;;;;;36.90;17.20;;;5.70;99.90;;;;;;5121854;27;20375;-67
2022/12/05 03:35:18;;;;;;;41.13;17.23;;;5.80;99.90;;;;;;5110612;27;20082;-67
2022/12/05 03:37:49;;;;;;;54.20;19.35;;;5.80;99.90;;;;;;5099546;27;20030;-67
2022/12/05 03:40:33;;;;;;;38.22;18.50;;;5.70;99.90;;;;;;5117261;27;20489;-67
2022/12/05 03:43:28;;;;;;;44.53;19.15;;;5.80;99.90;;;;;;5106417;27;20074;-67
2022/12/05 03:46:12;;;;;;;39.20;18.70;;;5.70;99.90;;;;;;5119166;27;20019;-67
2022/12/05 03:48:59;;;;;;;36.67;18.13;;;5.80;99.90;;;;;;5140403;27;20023;-67
2022/12/05 03:51:30;;;;;;;42.80;19.38;;;5.70;99.90;;;;;;5138143;27;20042;-67
2022/12/05 03:54:19;;;;;;;39.47;18.38;;;5.60;99.90;;;;;;5126890;27;20066;-67
2022/12/05 03:56:55;;;;;;;36.50;17.58;;;5.60;99.90;;;;;;5100053;27;20400;-67
2022/12/05 03:59:53;;;;;;;40.42;19.33;;;5.70;99.90;;;;;;5094281;27;20161;-67
2022/12/05 04:02:34;;;;;;;35.20;17.52;;;5.70;99.90;;;;;;5089755;28;20059;-67
2022/12/05 04:05:23;;;;;;;39.25;18.10;;;5.70;99.90;;;;;;5117205;27;20508;-67
2022/12/05 04:08:14;;;;;;;38.28;18.90;;;5.80;99.90;;;;;;5109231;27;20455;-68
2022/12/05 04:10:49;;;;;;;36.35;17.60;;;5.80;99.90;;;;;;5118501;27;20054;-67
2022/12/05 04:13:24;;;;;;;34.53;16.65;;;5.90;99.90;;;;;;5111697;27;20035;-67
2022/12/05 04:18:57;;;;;;;36.78;18.38;;;6.00;99.90;;;;;;5104213;27;20065;-67
2022/12/05 04:21:37;;;;;;;32.83;16.25;;;6.00;99.90;;;;;;5139026;27;20042;-67
2022/12/05 04:26:58;;;;;;;36.50;18.63;;;5.90;99.90;;;;;;5133752;27;20072;-67
2022/12/05 04:29:38;;;;;;;37.10;17.42;;;5.90;99.90;;;;;;5080667;28;20027;-67
2022/12/05 04:32:07;;;;;;;34.28;17.42;;;5.90;99.90;;;;;;5113094;27;20036;-67
2022/12/05 04:34:35;;;;;;;36.90;18.60;;;5.80;99.90;;;;;;5097754;27;20032;-67
2022/12/05 04:37:05;;;;;;;31.95;16.27;;;5.90;99.90;;;;;;5101453;27;20031;-67
2022/12/05 04:39:49;;;;;;;36.65;16.90;;;5.90;99.90;;;;;;5119030;27;20482;-67
2022/12/05 04:42:20;;;;;;;32.78;17.38;;;6.00;99.90;;;;;;5117350;27;20035;-67
2022/12/05 04:44:51;;;;;;;34.17;17.15;;;6.00;99.90;;;;;;5126425;27;20027;-67
2022/12/05 04:47:21;;;;;;;31.63;16.83;;;6.00;99.90;;;;;;5108603;27;20301;-68
2022/12/05 04:49:47;;;;;;;33.40;17.08;;;5.90;99.90;;;;;;5113973;27;20031;-67
2022/12/05 04:52:13;;;;;;;34.90;17.77;;;5.80;99.90;;;;;;5108216;27;20042;-67
2022/12/05 04:55:00;;;;;;;37.97;17.63;;;5.80;99.90;;;;;;5128197;27;20030;-67
2022/12/05 04:57:34;;;;;;;35.17;17.30;;;5.90;99.90;;;;;;5122094;27;20019;-67
2022/12/05 04:59:59;;;;;;;35.88;17.70;;;5.90;99.90;;;;;;5117086;27;20052;-67
2022/12/05 05:02:36;;;;;;;33.88;17.65;;;5.90;99.90;;;;;;5112758;27;20506;-67
2022/12/05 05:05:06;;;;;;;31.35;17.13;;;5.90;99.90;;;;;;5127016;27;20027;-67
2022/12/05 05:07:46;;;;;;;29.52;16.42;;;5.90;99.90;;;;;;5135583;27;20072;-67
2022/12/05 05:10:15;;;;;;;30.48;16.25;;;5.90;99.90;;;;;;5109861;27;20035;-67
2022/12/05 05:12:41;;;;;;;31.08;16.73;;;5.90;99.90;;;;;;5120733;27;20027;-67
2022/12/05 05:15:07;;;;;;;34.20;17.40;;;6.00;99.90;;;;;;5124028;27;20433;-67
2022/12/05 05:17:32;;;;;;;35.22;17.00;;;5.80;99.90;;;;;;5123373;27;20078;-67
2022/12/05 05:20:22;;;;;;;30.83;16.80;;;5.90;99.90;;;;;;5092626;27;20126;-67
2022/12/05 05:22:47;;;;;;;31.92;15.95;;;5.90;99.90;;;;;;5113453;27;20106;-67
2022/12/05 05:25:12;;;;;;;33.03;16.67;;;5.90;99.90;;;;;;5115792;27;20560;-67
2022/12/05 05:27:38;;;;;;;28.05;15.55;;;5.90;99.90;;;;;;5119072;27;20038;-67
2022/12/05 05:30:04;;;;;;;36.33;16.83;;;5.90;99.90;;;;;;5117152;27;20027;-67
2022/12/05 05:32:32;;;;;;;28.02;16.30;;;5.90;99.90;;;;;;5135804;27;20041;-67
2022/12/05 05:34:57;;;;;;;32.03;16.02;;;5.90;99.90;;;;;;5137156;27;20486;-67
2022/12/05 05:37:23;;;;;;;31.70;16.25;;;5.90;99.90;;;;;;5129977;27;20042;-68
2022/12/05 05:39:49;;;;;;;30.20;16.42;;;5.90;99.90;;;;;;5120759;27;20692;-67
2022/12/05 05:42:14;;;;;;;26.25;16.63;;;5.80;99.90;;;;;;5104075;27;20051;-67
2022/12/05 05:44:40;;;;;;;31.58;16.20;;;5.90;99.90;;;;;;5101989;27;20058;-67
2022/12/05 05:47:05;;;;;;;32.65;15.95;;;5.80;99.90;;;;;;5139629;27;20393;-67
2022/12/05 05:49:31;;;;;;;32.33;16.08;;;5.80;99.90;;;;;;5136774;27;20106;-68
2022/12/05 05:51:57;;;;;;;30.45;16.58;;;5.80;99.90;;;;;;5107188;27;20042;-67
2022/12/05 05:54:22;;;;;;;27.33;15.20;;;5.80;99.90;;;;;;5102133;27;20035;-67
2022/12/05 05:56:48;;;;;;;32.05;15.45;;;5.80;99.90;;;;;;5115070;27;20091;-67
2022/12/05 05:59:13;;;;;;;28.58;15.13;;;5.80;99.90;;;;;;5133478;27;20027;-67
2022/12/05 06:01:39;;;;;;;26.90;15.15;;;5.90;99.90;;;;;;5140697;27;20553;-67
2022/12/05 06:04:06;;;;;;;24.85;15.05;;;5.90;99.90;;;;;;5130804;27;20600;-67
2022/12/05 06:06:32;;;;;;;28.35;15.50;;;5.80;99.90;;;;;;5132043;27;20193;-67
2022/12/05 06:08:57;;;;;;;30.42;15.48;;;5.90;99.90;;;;;;5121558;27;20023;-67
2022/12/05 06:11:26;;;;;;;29.70;14.02;;;6.00;99.90;;;;;;5119672;27;20378;-67
2022/12/05 06:13:54;;;;;;;31.50;15.25;;;5.90;99.90;;;;;;5115778;27;20879;-67
2022/12/05 06:16:20;;;;;;;27.98;14.40;;;6.00;99.90;;;;;;5116307;27;20106;-67
2022/12/05 06:18:46;;;;;;;22.30;13.40;;;6.00;99.90;;;;;;5116122;27;20114;-67
2022/12/05 06:21:12;;;;;;;24.90;13.90;;;6.00;99.90;;;;;;5098041;27;20397;-67
2022/12/05 06:23:38;;;;;;;23.02;12.85;;;6.10;99.90;;;;;;5106333;27;20037;-67
2022/12/05 06:26:09;;;;;;;27.80;14.63;;;5.90;99.90;;;;;;5134264;27;20077;-67
2022/12/05 06:28:36;;;;;;;24.02;14.00;;;6.00;99.90;;;;;;5120370;27;20028;-68
2022/12/05 06:31:06;;;;;;;22.20;13.43;;;6.00;99.90;;;;;;5122721;27;20371;-67
2022/12/05 06:33:32;;;;;;;19.75;12.20;;;6.10;99.90;;;;;;5097738;28;20118;-67
2022/12/05 06:36:10;;;;;;;24.42;12.68;;;6.10;99.90;;;;;;5097675;28;20114;-67
2022/12/05 06:38:36;;;;;;;27.45;13.68;;;6.00;99.90;;;;;;5115805;27;20023;-67
2022/12/05 06:41:06;;;;;;;25.67;13.18;;;6.10;99.90;;;;;;5122538;27;20042;-67
2022/12/05 06:43:32;;;;;;;26.55;13.65;;;6.10;99.90;;;;;;5105285;27;20035;-67
2022/12/05 06:45:58;;;;;;;20.15;12.35;;;6.10;99.90;;;;;;5097707;28;20028;-67
2022/12/05 06:48:24;;;;;;;23.15;12.65;;;6.10;99.90;;;;;;5117112;27;20053;-68
2022/12/05 06:50:51;;;;;;;23.08;11.98;;;6.10;99.90;;;;;;5115898;27;20027;-67
2022/12/05 06:53:18;;;;;;;23.38;13.00;;;6.20;99.90;;;;;;5121832;27;20023;-68
2022/12/05 06:55:53;;;;;;;24.80;12.35;;;6.30;99.90;;;;;;5115975;27;20038;-67
2022/12/05 06:58:19;;;;;;;26.73;12.73;;;6.30;99.90;;;;;;5112574;27;20134;-67
2022/12/05 07:03:28;;;;;;;23.70;12.05;;;6.10;99.90;;;;;;5096531;28;20058;-67
2022/12/05 07:05:54;;;;;;;24.77;13.07;;;6.20;99.90;;;;;;5109503;27;20023;-67
2022/12/05 07:08:20;;;;;;;24.80;12.98;;;6.10;99.90;;;;;;5110124;27;20024;-67
2022/12/05 07:10:51;;;;;;;22.30;12.50;;;6.10;99.90;;;;;;5099871;27;20031;-67
2022/12/05 07:13:17;;;;;;;23.23;12.32;;;6.10;99.90;;;;;;5118206;27;20053;-67
2022/12/05 07:15:46;;;;;;;22.45;11.88;;;6.10;99.90;;;;;;5109978;27;20874;-67
2022/12/05 07:18:13;;;;;;;57.50;29.63;;;6.10;99.90;;;;;;5122499;27;20024;-67
2022/12/05 07:20:38;;;;;;;24.73;15.02;;;6.20;99.90;;;;;;5103955;27;20043;-68
2022/12/05 07:23:04;;;;;;;23.38;12.38;;;6.30;99.90;;;;;;5107478;27;20024;-67
2022/12/05 07:25:29;;;;;;;23.33;12.40;;;6.20;99.90;;;;;;5091774;27;20053;-68
2022/12/05 07:27:55;;;;;;;23.30;11.40;;;6.30;99.90;;;;;;5127092;27;20030;-67
2022/12/05 07:30:21;;;;;;;20.70;12.10;;;6.30;99.90;;;;;;5108210;27;20069;-67
2022/12/05 07:32:46;;;;;;;20.42;11.82;;;6.20;99.90;;;;;;5110754;27;20529;-68
2022/12/05 07:35:12;;;;;;;22.60;12.02;;;6.30;99.90;;;;;;5114205;27;20031;-67
2022/12/05 07:37:37;;;;;;;23.40;11.23;;;6.20;99.90;;;;;;5108629;27;20182;-67
2022/12/05 07:40:04;;;;;;;22.02;11.73;;;6.30;99.90;;;;;;5115082;27;20023;-68
2022/12/05 07:42:30;;;;;;;23.13;11.18;;;6.20;99.90;;;;;;5119300;27;20110;-67
2022/12/05 07:44:55;;;;;;;24.20;11.35;;;6.30;99.90;;;;;;5112742;27;20462;-67
2022/12/05 07:47:21;;;;;;;26.67;12.32;;;6.30;99.90;;;;;;5122117;27;20038;-67
2022/12/05 07:49:46;;;;;;;19.00;10.60;;;6.30;99.90;;;;;;5139709;27;20184;-67
2022/12/05 07:52:12;;;;;;;22.20;11.27;;;6.30;99.90;;;;;;5128249;27;20019;-67
2022/12/05 07:54:38;;;;;;;19.80;11.35;;;6.30;99.90;;;;;;5115176;27;20240;-67
2022/12/05 07:57:03;;;;;;;20.50;11.18;;;6.20;99.90;;;;;;5124624;27;20489;-67
2022/12/05 07:59:29;;;;;;;20.48;10.98;;;6.20;99.90;;;;;;5104958;27;20078;-67
2022/12/05 08:01:55;;;;;;;21.60;11.93;;;6.20;99.90;;;;;;5108004;27;20042;-67
2022/12/05 08:04:20;;;;;;;23.00;11.50;;;6.20;99.90;;;;;;5097202;27;20106;-68
2022/12/05 08:06:46;;;;;;;19.42;11.45;;;6.20;99.90;;;;;;5117709;27;20034;-67
2022/12/05 08:09:12;;;;;;;22.98;12.23;;;6.20;99.90;;;;;;5081389;28;20390;-67
2022/12/05 08:11:37;;;;;;;19.20;11.00;;;6.10;99.90;;;;;;5126126;27;20034;-67
2022/12/05 08:14:04;;;;;;;20.75;11.65;;;6.10;99.90;;;;;;5119130;27;20512;-67
2022/12/05 08:16:31;;;;;;;17.35;11.13;;;6.20;99.90;;;;;;5112451;27;20031;-68
2022/12/05 08:19:05;;;;;;;22.50;11.63;;;6.30;99.90;;;;;;5100464;27;20027;-67
2022/12/05 08:21:31;;;;;;;18.90;10.82;;;6.40;99.90;;;;;;5105126;27;20050;-67
2022/12/05 08:23:57;;;;;;;18.70;10.10;;;6.40;99.90;;;;;;5105217;27;20054;-68
2022/12/05 08:26:28;;;;;;;23.55;11.45;;;6.40;99.90;;;;;;5111567;27;20054;-67
2022/12/05 08:29:03;;;;;;;20.95;11.48;;;6.40;99.90;;;;;;5126310;27;20038;-67
2022/12/05 08:31:32;;;;;;;21.00;12.38;;;6.30;99.90;;;;;;5109387;27;20104;-68
2022/12/05 08:33:59;;;;;;;21.73;11.93;;;6.30;99.90;;;;;;5106416;27;20027;-67
2022/12/05 08:36:26;;;;;;;21.38;12.88;;;6.30;99.90;;;;;;5112652;27;20084;-67
2022/12/05 08:38:56;;;;;;;20.60;11.70;;;6.40;99.90;;;;;;5103427;27;20118;-67
2022/12/05 08:41:27;;;;;;;21.90;12.10;;;6.50;99.90;;;;;;5105292;27;20028;-68
2022/12/05 08:43:53;;;;;;;22.65;12.48;;;6.50;99.90;;;;;;5121462;27;20196;-67
2022/12/05 08:46:19;;;;;;;21.02;11.20;;;6.60;99.90;;;;;;5111398;27;20042;-68
2022/12/05 08:48:45;;;;;;;21.45;12.13;;;6.60;99.90;;;;;;5084197;28;20023;-67
2022/12/05 08:51:12;;;;;;;19.98;12.18;;;6.70;99.90;;;;;;5124230;27;20023;-68
2022/12/05 08:53:38;;;;;;;25.15;12.02;;;6.70;99.90;;;;;;5113647;27;20019;-68
2022/12/05 08:56:06;;;;;;;19.42;11.65;;;6.70;99.90;;;;;;5115564;27;20030;-67
2022/12/05 08:58:32;;;;;;;20.40;11.68;;;6.70;99.90;;;;;;5112970;27;20079;-68
2022/12/05 09:01:13;;;;;;;20.73;11.90;;;6.80;99.90;;;;;;5112732;27;20522;-68
2022/12/05 09:03:40;;;;;;;21.90;12.55;;;6.90;99.90;;;;;;5133063;27;20528;-67
2022/12/05 09:06:19;;;;;;;19.83;10.88;;;6.90;99.90;;;;;;5127912;27;20077;-67
2022/12/05 09:08:46;;;;;;;23.52;12.13;;;6.90;99.90;;;;;;5108507;27;20283;-68
2022/12/05 09:11:17;;;;;;;20.50;11.10;;;7.00;99.90;;;;;;5088911;28;20103;-68
2022/12/05 09:13:44;;;;;;;26.45;11.50;;;7.00;99.90;;;;;;5108795;27;20027;-67
2022/12/05 09:16:12;;;;;;;19.27;10.90;;;6.90;99.90;;;;;;5105254;28;20035;-67
2022/12/05 09:18:38;;;;;;;20.77;11.85;;;7.00;99.90;;;;;;5115984;28;20279;-68
2022/12/05 09:21:09;;;;;;;23.63;11.88;;;7.00;99.90;;;;;;5127787;27;20035;-68
2022/12/05 09:23:34;;;;;;;17.77;11.40;;;7.00;99.90;;;;;;5112186;28;20066;-67
2022/12/05 09:26:00;;;;;;;19.58;12.10;;;7.00;99.90;;;;;;5108996;27;20123;-67
2022/12/05 09:28:27;;;;;;;21.58;11.35;;;7.10;99.90;;;;;;5120972;27;20034;-68
2022/12/05 09:31:01;;;;;;;19.80;11.48;;;7.10;99.90;;;;;;5116626;27;20058;-68
2022/12/05 09:33:29;;;;;;;22.80;11.85;;;7.20;99.90;;;;;;5117388;27;20054;-67
2022/12/05 09:35:54;;;;;;;21.02;11.32;;;7.20;99.90;;;;;;5103588;27;20768;-67
2022/12/05 09:38:21;;;;;;;20.45;11.40;;;7.20;99.90;;;;;;5122351;27;20031;-67
2022/12/05 09:40:55;;;;;;;21.60;11.25;;;7.30;99.90;;;;;;5115375;27;20603;-67
2022/12/05 09:43:55;;;;;;;19.33;11.45;;;7.30;99.90;;;;;;5110593;27;20020;-67
2022/12/05 09:46:46;;;;;;;20.20;11.50;;;7.20;99.90;;;;;;5098134;27;20035;-68
2022/12/05 09:49:12;;;;;;;18.00;10.68;;;7.20;99.90;;;;;;5105538;27;20450;-67
2022/12/05 09:51:44;;;;;;;19.05;10.48;;;7.20;99.90;;;;;;5105424;27;20028;-67
2022/12/05 09:54:11;;;;;;;19.23;11.25;;;7.10;99.90;;;;;;5107670;27;20038;-68
2022/12/05 09:56:38;;;;;;;19.40;11.60;;;7.20;99.90;;;;;;5112027;27;20266;-67
2022/12/05 09:59:08;;;;;;;19.08;11.02;;;7.30;99.90;;;;;;5103666;27;20028;-68
2022/12/05 10:01:44;;;;;;;20.80;10.48;;;7.10;99.90;;;;;;5108932;27;20035;-67
2022/12/05 10:04:30;;;;;;;19.20;11.07;;;7.10;99.90;;;;;;5119581;27;20103;-67
2022/12/05 10:07:10;;;;;;;23.08;10.88;;;7.10;99.90;;;;;;5078770;27;20109;-68
2022/12/05 10:10:04;;;;;;;20.05;10.40;;;7.10;99.90;;;;;;5134859;27;20027;-67
2022/12/05 10:12:50;;;;;;;18.17;10.30;;;7.20;99.90;;;;;;5099108;27;20039;-68
2022/12/05 10:15:36;;;;;;;20.60;10.85;;;7.10;99.90;;;;;;5096387;28;20520;-67
2022/12/05 10:18:23;;;;;;;18.15;10.20;;;7.20;99.90;;;;;;5096185;27;20039;-68
2022/12/05 10:20:57;;;;;;;18.95;10.23;;;7.20;99.90;;;;;;5131497;27;20031;-67
2022/12/05 10:23:28;;;;;;;17.73;9.85;;;7.30;99.90;;;;;;5104749;27;20449;-67
2022/12/05 10:26:01;;;;;;;18.27;10.35;;;7.30;99.90;;;;;;5130129;27;20023;-67
2022/12/05 10:28:38;;;;;;;18.08;9.70;;;7.30;99.90;;;;;;5134914;27;20509;-67
2022/12/05 10:31:09;;;;;;;18.05;10.38;;;7.30;99.90;;;;;;5104161;27;20031;-67
2022/12/05 10:33:40;;;;;;;17.33;8.93;;;7.40;99.90;;;;;;5099749;28;20116;-68
2022/12/05 10:36:11;;;;;;;20.30;10.70;;;7.50;99.90;;;;;;5114538;27;20039;-67
2022/12/05 10:38:38;;;;;;;15.75;9.75;;;7.40;99.90;;;;;;5120075;27;20119;-67
2022/12/05 10:41:07;;;;;;;17.83;8.68;;;7.40;99.90;;;;;;5120203;27;20518;-67
2022/12/05 10:43:36;;;;;;;15.68;8.77;;;7.40;99.90;;;;;;5134297;27;20033;-68
2022/12/05 10:46:02;;;;;;;16.50;9.27;;;7.40;99.90;;;;;;5137728;27;20532;-67
2022/12/05 10:48:30;;;;;;;14.68;9.02;;;7.50;99.90;;;;;;5114419;27;20031;-68
2022/12/05 10:50:57;;;;;;;18.02;9.95;;;7.40;99.90;;;;;;5127087;27;20106;-68
2022/12/05 10:53:42;;;;;;;19.60;9.65;;;7.50;99.90;;;;;;5115334;27;20024;-68
2022/12/05 10:56:36;;;;;;;16.38;9.57;;;7.60;99.90;;;;;;5124289;27;20031;-68
2022/12/05 10:59:03;;;;;;;17.50;9.55;;;7.60;99.90;;;;;;5112189;27;20034;-67
2022/12/05 11:01:29;;;;;;;15.55;9.65;;;7.60;99.90;;;;;;5102841;27;20203;-68
2022/12/05 11:04:16;;;;;;;20.48;10.02;;;7.70;99.90;;;;;;5102570;27;20447;-67
2022/12/05 11:06:51;;;;;;;19.52;9.82;;;7.70;99.90;;;;;;5138368;27;20030;-67
2022/12/05 11:09:21;;;;;;;20.42;9.98;;;7.60;99.90;;;;;;5090077;27;20023;-68
2022/12/05 11:12:19;;;;;;;15.20;9.25;;;7.60;99.90;;;;;;5107684;27;20447;-68
2022/12/05 11:14:54;;;;;;;17.90;10.00;;;7.70;99.90;;;;;;5129562;27;20354;-68
2022/12/05 11:17:38;;;;;;;18.60;9.90;;;7.50;99.90;;;;;;5108143;27;20053;-68
2022/12/05 11:20:19;;;;;;;16.63;9.43;;;7.50;99.90;;;;;;5115133;27;20050;-68
2022/12/05 11:22:53;;;;;;;15.87;8.97;;;7.40;99.90;;;;;;5115515;27;20047;-68
2022/12/05 11:25:24;;;;;;;18.10;9.20;;;7.50;99.90;;;;;;5109411;27;20062;-68
2022/12/05 11:27:50;;;;;;;;;;;7.60;99.90;;;;;;5114861;27;20039;-68
2022/12/05 11:30:21;;;;;;;17.65;9.77;;;7.70;99.90;;;;;;5101474;27;20008;-68
2022/12/05 11:32:48;;;;;;;16.73;9.77;;;7.70;99.90;;;;;;5109108;27;20039;-68
2022/12/05 11:35:27;;;;;;;17.52;9.85;;;7.60;99.90;;;;;;5106305;27;20388;-68
2022/12/05 11:38:01;;;;;;;22.02;10.73;;;7.60;99.90;;;;;;5119062;27;20019;-68
2022/12/05 11:40:31;;;;;;;17.35;10.18;;;7.60;99.90;;;;;;5122066;27;20031;-68
2022/12/05 11:43:10;;;;;;;18.63;10.40;;;7.60;99.90;;;;;;5118511;27;20026;-68
2022/12/05 11:45:58;;;;;;;17.98;10.02;;;7.60;99.90;;;;;;5115701;27;20121;-68
2022/12/05 11:48:33;;;;;;;15.55;9.23;;;7.60;99.90;;;;;;5123823;27;20042;-68
2022/12/05 11:51:37;;;;;;;16.70;9.70;;;7.60;99.90;;;;;;5107283;27;20038;-68
2022/12/05 11:54:19;;;;;;;19.00;10.18;;;7.80;99.90;;;;;;5109611;27;20680;-68
2022/12/05 11:56:57;;;;;;;17.58;10.15;;;7.80;99.90;;;;;;5099902;27;20568;-68
2022/12/05 11:59:45;;;;;;;20.30;10.18;;;7.80;99.90;;;;;;5106818;27;20031;-68
2022/12/05 12:02:28;;;;;;;21.55;10.88;;;7.90;99.90;;;;;;5113759;27;20306;-68
2022/12/05 12:05:14;;;;;;;17.00;10.38;;;7.80;99.90;;;;;;5112924;27;20023;-68
2022/12/05 12:08:11;;;;;;;21.42;10.85;;;7.90;99.90;;;;;;5118011;27;20054;-68
2022/12/05 12:10:43;;;;;;;18.45;10.75;;;8.00;99.90;;;;;;5085472;27;20038;-68
2022/12/05 12:13:41;;;;;;;16.15;10.27;;;8.10;99.90;;;;;;5115776;27;20512;-68
2022/12/05 12:16:18;;;;;;;18.23;11.40;;;8.30;99.90;;;;;;5060075;27;20411;-68
2022/12/05 12:18:43;;;;;;;19.70;10.95;;;8.50;99.90;;;;;;5122347;27;20026;-68
2022/12/05 12:21:25;;;;;;;20.13;10.60;;;8.60;99.90;;;;;;5121171;27;20046;-68
2022/12/05 12:24:37;;;;;;;18.45;10.43;;;8.70;99.90;;;;;;5095970;27;20626;-68
2022/12/05 12:27:26;;;;;;;17.92;10.00;;;8.60;99.90;;;;;;5112559;27;20498;-68
2022/12/05 12:30:00;;;;;;;16.95;10.00;;;8.60;99.90;;;;;;5112909;27;20030;-67
2022/12/05 12:32:47;;;;;;;16.42;9.88;;;8.70;99.90;;;;;;5116024;27;20026;-67
2022/12/05 12:35:36;;;;;;;19.65;9.80;;;8.60;99.90;;;;;;5119049;27;20034;-67
2022/12/05 12:38:29;;;;;;;19.08;10.20;;;8.60;99.90;;;;;;5118226;27;20078;-67
2022/12/05 12:41:15;;;;;;;18.02;10.02;;;8.50;99.90;;;;;;5089041;28;20126;-67
2022/12/05 12:43:43;;;;;;;17.73;9.93;;;8.50;99.90;;;;;;5056234;28;20045;-67
2022/12/05 12:46:21;;;;;;;17.40;9.90;;;8.40;99.90;;;;;;5080176;28;20114;-67
2022/12/05 12:49:16;;;;;;;22.85;10.35;;;8.40;99.90;;;;;;5118304;27;20026;-67
2022/12/05 12:51:53;;;;;;;32.78;20.33;;;8.40;99.90;;;;;;5042708;28;20087;-67
2022/12/05 12:54:39;;;;;;;22.27;11.60;;;8.40;99.90;;;;;;5109530;27;20134;-71
2022/12/05 12:57:14;;;;;;;21.67;10.13;;;8.30;99.90;;;;;;5113910;27;20049;-70
2022/12/05 13:00:06;;;;;;;19.95;11.63;;;8.40;99.90;;;;;;5099506;28;20039;-70
2022/12/05 13:02:42;;;;;;;;;;;8.50;99.90;;;;;;5097169;27;20058;-73
2022/12/05 13:05:29;;;;;;;18.30;9.85;;;8.60;99.90;;;;;;5120317;27;19914;-70
2022/12/05 13:08:06;;;;;;;15.82;10.00;;;8.70;99.90;;;;;;5117958;27;20046;-66
2022/12/05 13:10:38;;;;;;;17.75;10.45;;;8.80;99.90;;;;;;5091556;28;20044;-72
2022/12/05 13:13:06;;;;;;;18.15;10.20;;;8.70;99.90;;;;;;5111087;27;20042;-74
2022/12/05 13:15:46;;;;;;;18.67;9.77;;;8.60;99.90;;;;;;5120115;27;20026;-67